createdAt,value
2019-05-19T00:01:24.762Z,37.88
2019-05-19T00:03:54.599Z,40.63
2019-05-19T00:06:24.491Z,39.73
2019-05-19T00:08:54.317Z,40.12
2019-05-19T00:11:24.444Z,40.70
2019-05-19T00:13:55.868Z,42.45
2019-05-19T00:16:25.706Z,46.92
2019-05-19T00:18:55.527Z,48.98
2019-05-19T00:21:25.348Z,47.35
2019-05-19T00:23:55.181Z,48.00
2019-05-19T00:26:25.070Z,48.20
2019-05-19T00:28:55.287Z,48.75
2019-05-19T00:31:25.101Z,49.00
2019-05-19T00:33:54.991Z,49.48
2019-05-19T00:36:24.807Z,46.50
2019-05-19T00:38:54.629Z,49.13
2019-05-19T00:41:24.786Z,48.30
2019-05-19T00:43:54.595Z,50.75
2019-05-19T00:46:25.313Z,46.65
2019-05-19T00:48:56.227Z,49.13
2019-05-19T00:51:26.223Z,53.95
2019-05-19T00:53:56.069Z,51.50
2019-05-19T00:56:26.419Z,54.77
2019-05-19T00:58:58.398Z,54.18
2019-05-19T01:01:28.496Z,52.05
2019-05-19T01:03:59.648Z,54.53
2019-05-19T01:06:29.559Z,59.40
2019-05-19T01:08:59.428Z,58.40
2019-05-19T01:11:29.492Z,52.13
2019-05-19T01:13:59.811Z,57.58
2019-05-19T01:16:29.811Z,56.15
2019-05-19T01:18:59.715Z,58.87
2019-05-19T01:21:30.354Z,62.08
2019-05-19T01:24:00.186Z,59.33
2019-05-19T01:26:30.015Z,63.58
2019-05-19T01:29:00.140Z,64.90
2019-05-19T01:31:30.083Z,64.45
2019-05-19T01:34:00.300Z,68.67
2019-05-19T01:36:30.241Z,71.50
2019-05-19T01:39:00.410Z,74.05
2019-05-19T01:41:30.322Z,75.22
2019-05-19T01:44:00.245Z,71.07
2019-05-19T01:46:30.157Z,73.70
2019-05-19T01:48:59.989Z,87.97
2019-05-19T01:51:29.828Z,81.97
2019-05-19T01:54:00.014Z,78.65
2019-05-19T01:56:30.321Z,86.75
2019-05-19T01:59:00.448Z,76.02
2019-05-19T02:01:30.604Z,78.57
2019-05-19T02:04:00.797Z,80.62
2019-05-19T02:06:31.008Z,83.05
2019-05-19T02:09:01.940Z,80.22
2019-05-19T02:11:32.288Z,70.57
2019-05-19T02:14:03.627Z,73.75
2019-05-19T02:16:33.519Z,79.90
2019-05-19T02:19:03.658Z,78.25
2019-05-19T02:21:33.477Z,75.85
2019-05-19T02:24:03.400Z,77.40
2019-05-19T02:26:34.748Z,80.95
2019-05-19T02:29:04.726Z,76.33
2019-05-19T02:31:34.570Z,80.32
2019-05-19T02:34:04.884Z,82.10
2019-05-19T02:36:35.118Z,82.92
2019-05-19T02:39:07.292Z,82.97
2019-05-19T02:41:39.405Z,84.35
2019-05-19T02:44:09.582Z,84.28
2019-05-19T02:46:41.732Z,85.67
2019-05-19T02:49:14.187Z,97.17
2019-05-19T02:51:46.651Z,100.85
2019-05-19T02:54:17.731Z,99.85
2019-05-19T02:56:48.405Z,106.58
2019-05-19T02:59:20.556Z,106.87
2019-05-19T03:02:04.459Z,111.37
2019-05-19T03:04:34.386Z,111.45
2019-05-19T03:07:04.917Z,118.47
2019-05-19T03:09:34.945Z,124.18
2019-05-19T03:12:04.941Z,118.20
2019-05-19T03:14:34.935Z,118.72
2019-05-19T03:17:04.930Z,118.67
2019-05-19T03:19:34.780Z,110.42
2019-05-19T03:22:05.024Z,128.20
2019-05-19T03:24:34.945Z,123.85
2019-05-19T03:27:05.068Z,125.33
2019-05-19T03:29:36.820Z,120.92
2019-05-19T03:32:20.476Z,121.70
2019-05-19T03:34:50.308Z,127.38
2019-05-19T03:37:20.237Z,136.20
2019-05-19T03:39:50.514Z,138.65
2019-05-19T03:42:20.627Z,144.15
2019-05-19T03:44:50.769Z,140.55
2019-05-19T03:47:20.663Z,132.93
2019-05-19T03:49:50.487Z,138.12
2019-05-19T03:52:20.310Z,149.38
2019-05-19T03:54:50.140Z,137.80
2019-05-19T03:57:19.994Z,146.57
2019-05-19T03:59:49.824Z,143.70
2019-05-19T04:02:19.679Z,128.50
2019-05-19T04:04:49.511Z,129.70
2019-05-19T04:07:19.769Z,125.10
2019-05-19T04:09:49.945Z,120.17
2019-05-19T04:12:19.766Z,113.60
2019-05-19T04:14:49.605Z,103.75
2019-05-19T04:17:19.437Z,90.12
2019-05-19T04:19:49.442Z,81.30
2019-05-19T04:22:19.350Z,65.55
2019-05-19T04:24:49.556Z,61.60
2019-05-19T04:27:19.378Z,60.90
2019-05-19T04:29:49.231Z,55.63
2019-05-19T04:32:23.336Z,54.45
2019-05-19T04:34:53.557Z,53.23
2019-05-19T04:37:23.779Z,49.45
2019-05-19T04:39:53.900Z,51.15
2019-05-19T04:42:23.903Z,52.85
2019-05-19T04:44:53.785Z,49.35
2019-05-19T04:47:23.715Z,48.92
2019-05-19T04:50:01.135Z,46.58
2019-05-19T04:52:31.078Z,44.00
2019-05-19T04:55:01.293Z,43.52
2019-05-19T04:57:31.522Z,44.77
2019-05-19T05:00:01.425Z,46.10
2019-05-19T05:02:31.337Z,44.20
2019-05-19T05:05:01.909Z,45.78
2019-05-19T05:07:32.169Z,47.30
2019-05-19T05:10:02.290Z,45.20
2019-05-19T05:12:32.414Z,45.45
2019-05-19T05:15:02.318Z,46.80
2019-05-19T05:17:32.479Z,45.92
2019-05-19T05:20:02.606Z,45.43
2019-05-19T05:22:32.692Z,49.80
2019-05-19T05:25:02.651Z,47.23
2019-05-19T05:27:32.483Z,48.65
2019-05-19T05:30:02.608Z,46.28
2019-05-19T05:32:32.419Z,45.85
2019-05-19T05:35:02.585Z,43.42
2019-05-19T05:37:32.432Z,43.25
2019-05-19T05:40:02.304Z,41.20
2019-05-19T05:42:32.230Z,42.03
2019-05-19T05:45:02.087Z,42.60
2019-05-19T05:47:31.911Z,39.13
2019-05-19T05:50:01.732Z,42.50
2019-05-19T05:52:38.500Z,40.30
2019-05-19T05:55:03.605Z,41.98
2019-05-19T05:57:33.411Z,42.27
2019-05-19T06:00:05.294Z,43.25
2019-05-19T06:02:35.294Z,41.75
2019-05-19T06:05:06.354Z,42.10
2019-05-19T06:07:36.481Z,42.88
2019-05-19T06:10:08.235Z,42.33
2019-05-19T06:12:39.389Z,43.30
2019-05-19T06:15:09.563Z,44.08
2019-05-19T06:17:39.391Z,44.42
2019-05-19T06:20:09.386Z,45.35
2019-05-19T06:22:54.746Z,42.40
2019-05-19T06:25:11.346Z,44.30
2019-05-19T06:27:41.539Z,43.92
2019-05-19T06:30:11.696Z,44.83
2019-05-19T06:32:46.285Z,46.60
2019-05-19T06:35:16.360Z,47.17
2019-05-19T06:37:46.330Z,45.83
2019-05-19T06:40:16.391Z,48.48
2019-05-19T06:42:46.580Z,48.58
2019-05-19T06:45:16.645Z,50.20
2019-05-19T06:47:46.454Z,48.98
2019-05-19T06:50:16.549Z,51.35
2019-05-19T06:52:46.496Z,51.42
2019-05-19T06:55:16.744Z,50.50
2019-05-19T06:57:46.988Z,50.17
2019-05-19T07:00:18.744Z,49.63
2019-05-19T07:02:48.864Z,50.88
2019-05-19T07:05:20.422Z,49.18
2019-05-19T07:07:50.239Z,49.90
2019-05-19T07:10:20.458Z,49.88
2019-05-19T07:12:50.582Z,50.20
2019-05-19T07:15:20.455Z,48.70
2019-05-19T07:17:50.616Z,51.50
2019-05-19T07:20:20.455Z,49.42
2019-05-19T07:22:50.369Z,52.15
2019-05-19T07:25:20.541Z,52.40
2019-05-19T07:27:50.699Z,53.13
2019-05-19T07:30:20.907Z,50.67
2019-05-19T07:32:51.028Z,51.92
2019-05-19T07:35:20.912Z,54.63
2019-05-19T07:37:50.733Z,55.20
2019-05-19T07:40:20.617Z,53.35
2019-05-19T07:42:50.697Z,54.98
2019-05-19T07:45:21.507Z,56.37
2019-05-19T07:47:51.646Z,59.38
2019-05-19T07:50:21.864Z,57.50
2019-05-19T07:52:51.676Z,58.63
2019-05-19T07:55:21.515Z,58.05
2019-05-19T07:57:51.735Z,58.68
2019-05-19T08:00:21.621Z,58.35
2019-05-19T08:02:51.447Z,53.80
2019-05-19T08:05:21.664Z,54.58
2019-05-19T08:07:51.519Z,53.98
2019-05-19T08:10:22.931Z,52.67
2019-05-19T08:12:52.770Z,50.48
2019-05-19T08:15:23.065Z,48.55
2019-05-19T08:17:53.205Z,52.27
2019-05-19T08:20:23.506Z,53.05
2019-05-19T08:22:53.342Z,50.88
2019-05-19T08:25:23.460Z,50.03
2019-05-19T08:27:53.563Z,50.45
2019-05-19T08:30:23.666Z,55.12
2019-05-19T08:32:53.527Z,51.75
2019-05-19T08:35:23.648Z,54.93
2019-05-19T08:37:53.466Z,48.63
2019-05-19T08:40:23.284Z,48.48
2019-05-19T08:42:53.129Z,44.15
2019-05-19T08:45:23.388Z,45.30
2019-05-19T08:47:53.209Z,42.80
2019-05-19T08:50:23.094Z,46.02
2019-05-19T08:52:53.343Z,46.23
2019-05-19T08:55:23.171Z,47.35
2019-05-19T08:57:53.036Z,46.63
2019-05-19T09:00:23.282Z,43.50
2019-05-19T09:02:53.122Z,42.27
2019-05-19T09:05:22.989Z,44.42
2019-05-19T09:07:52.953Z,43.58
2019-05-19T09:10:22.835Z,45.83
2019-05-19T09:12:52.646Z,45.23
2019-05-19T09:15:22.467Z,39.58
2019-05-19T09:17:54.195Z,43.80
2019-05-19T09:20:23.889Z,39.15
2019-05-19T09:22:54.051Z,38.75
2019-05-19T09:25:23.877Z,40.48
2019-05-19T09:27:53.997Z,39.53
2019-05-19T09:30:24.207Z,40.75
2019-05-19T09:32:54.051Z,41.08
2019-05-19T09:35:23.941Z,41.88
2019-05-19T09:37:53.785Z,41.58
2019-05-19T09:40:26.516Z,39.05
2019-05-19T09:42:55.522Z,38.67
2019-05-19T09:45:25.361Z,35.08
2019-05-19T09:47:55.168Z,35.38
2019-05-19T09:50:26.291Z,32.88
2019-05-19T09:52:56.544Z,34.95
2019-05-19T09:55:26.836Z,40.38
2019-05-19T09:57:56.736Z,40.98
2019-05-19T10:00:26.698Z,42.00
2019-05-19T10:02:56.514Z,39.98
2019-05-19T10:05:26.649Z,36.98
2019-05-19T10:07:56.831Z,36.08
2019-05-19T10:10:32.978Z,35.10
2019-05-19T10:13:03.451Z,36.38
2019-05-19T10:15:33.749Z,35.70
2019-05-19T10:18:03.721Z,36.90
2019-05-19T10:20:33.986Z,33.48
2019-05-19T10:23:03.931Z,34.13
2019-05-19T10:25:34.120Z,36.20
2019-05-19T10:28:04.370Z,33.55
2019-05-19T10:30:34.302Z,35.70
2019-05-19T10:33:04.140Z,34.50
2019-05-19T10:35:34.294Z,34.38
2019-05-19T10:38:04.520Z,31.23
2019-05-19T10:40:34.632Z,31.40
2019-05-19T10:43:04.854Z,30.68
2019-05-19T10:45:34.971Z,31.73
2019-05-19T10:48:04.879Z,32.28
2019-05-19T10:50:35.014Z,33.20
2019-05-19T10:53:05.280Z,30.30
2019-05-19T10:55:37.018Z,26.87
2019-05-19T10:58:07.063Z,27.95
2019-05-19T11:00:37.238Z,28.10
2019-05-19T11:03:07.349Z,23.38
2019-05-19T11:05:37.238Z,19.15
2019-05-19T11:08:07.049Z,17.55
2019-05-19T11:10:36.863Z,13.98
2019-05-19T11:13:06.940Z,10.32
2019-05-19T11:15:36.753Z,11.57
2019-05-19T11:18:06.854Z,11.53
2019-05-19T11:20:36.825Z,10.98
2019-05-19T11:23:06.633Z,11.68
2019-05-19T11:25:50.414Z,10.75
2019-05-19T11:28:09.102Z,11.22
2019-05-19T11:30:39.171Z,9.88
2019-05-19T11:33:09.238Z,12.25
2019-05-19T11:35:39.045Z,10.40
2019-05-19T11:38:08.870Z,10.98
2019-05-19T11:40:38.683Z,10.55
2019-05-19T11:43:08.751Z,13.68
2019-05-19T11:45:38.988Z,12.45
2019-05-19T11:48:09.101Z,12.30
2019-05-19T11:50:42.006Z,12.28
2019-05-19T11:53:11.001Z,10.48
2019-05-19T11:55:41.845Z,13.85
2019-05-19T11:58:13.377Z,14.43
2019-05-19T12:00:44.367Z,14.23
2019-05-19T12:03:15.254Z,14.43
2019-05-19T12:05:45.084Z,14.78
2019-05-19T12:08:15.187Z,15.58
2019-05-19T12:10:45.081Z,11.55
2019-05-19T12:13:14.911Z,12.98
2019-05-19T12:15:44.796Z,11.57
2019-05-19T12:18:14.950Z,11.28
2019-05-19T12:20:44.784Z,12.33
2019-05-19T12:23:14.634Z,12.03
2019-05-19T12:25:44.441Z,9.80
2019-05-19T12:28:14.517Z,10.30
2019-05-19T12:30:44.340Z,9.35
2019-05-19T12:33:14.232Z,10.10
2019-05-19T12:35:44.344Z,11.68
2019-05-19T12:38:14.258Z,13.25
2019-05-19T12:40:44.428Z,13.78
2019-05-19T12:43:14.253Z,10.65
2019-05-19T12:45:44.195Z,11.88
2019-05-19T12:48:14.196Z,13.98
2019-05-19T12:50:44.023Z,12.65
2019-05-19T12:53:14.211Z,13.58
2019-05-19T12:55:44.331Z,12.75
2019-05-19T12:58:14.177Z,12.65
2019-05-19T13:00:44.080Z,12.98
2019-05-19T13:03:15.811Z,9.95
2019-05-19T13:05:45.934Z,11.30
2019-05-19T13:08:15.753Z,11.85
2019-05-19T13:10:46.069Z,11.28
2019-05-19T13:13:15.901Z,11.63
2019-05-19T13:15:45.907Z,10.35
2019-05-19T13:18:22.403Z,10.45
2019-05-19T13:20:53.619Z,11.10
2019-05-19T13:23:23.745Z,11.15
2019-05-19T13:25:54.265Z,9.08
2019-05-19T13:28:24.375Z,9.45
2019-05-19T13:30:54.303Z,9.08
2019-05-19T13:33:24.722Z,9.90
2019-05-19T13:35:54.717Z,9.43
2019-05-19T13:38:24.561Z,11.40
2019-05-19T13:40:54.417Z,10.50
2019-05-19T13:43:26.491Z,8.88
2019-05-19T13:45:55.846Z,10.65
2019-05-19T13:48:25.701Z,9.33
2019-05-19T13:50:55.791Z,10.98
2019-05-19T13:53:26.237Z,10.40
2019-05-19T13:55:56.332Z,11.65
2019-05-19T13:58:26.262Z,13.80
2019-05-19T14:00:56.351Z,12.60
2019-05-19T14:03:26.418Z,13.75
2019-05-19T14:05:56.827Z,14.40
2019-05-19T14:08:27.019Z,16.02
2019-05-19T14:10:57.150Z,15.85
2019-05-19T14:13:27.380Z,15.80
2019-05-19T14:15:57.279Z,12.85
2019-05-19T14:18:27.098Z,13.28
2019-05-19T14:20:56.940Z,13.38
2019-05-19T14:23:26.791Z,12.93
2019-05-19T14:25:56.623Z,12.37
2019-05-19T14:28:26.786Z,13.98
2019-05-19T14:30:58.113Z,13.30
2019-05-19T14:33:27.919Z,14.68
2019-05-19T14:35:58.036Z,13.40
2019-05-19T14:38:28.179Z,12.50
2019-05-19T14:40:58.274Z,11.68
2019-05-19T14:43:33.060Z,12.58
2019-05-19T14:48:32.039Z,13.03
2019-05-19T14:51:01.969Z,13.25
2019-05-19T14:53:33.412Z,13.08
2019-05-19T14:56:03.288Z,11.95
2019-05-19T14:58:33.126Z,11.73
2019-05-19T15:01:02.979Z,12.58
2019-05-19T15:03:32.882Z,11.60
2019-05-19T15:06:03.070Z,9.35
2019-05-19T15:08:32.958Z,5.47
2019-05-19T15:11:02.796Z,4.70
2019-05-19T15:13:33.014Z,3.98
2019-05-19T15:16:03.351Z,2.83
2019-05-19T15:18:33.560Z,2.70
2019-05-19T15:21:03.387Z,3.70
2019-05-19T15:23:33.538Z,2.85
2019-05-19T15:26:03.453Z,2.50
2019-05-19T15:28:33.328Z,4.28
2019-05-19T15:31:03.158Z,1.92
2019-05-19T15:33:38.085Z,2.25
2019-05-19T15:36:06.344Z,2.25
2019-05-19T15:38:36.504Z,1.72
2019-05-19T15:41:06.313Z,3.52
2019-05-19T15:43:36.187Z,2.40
2019-05-19T15:46:06.520Z,4.28
2019-05-19T15:48:36.410Z,2.52
2019-05-19T15:51:06.547Z,4.10
2019-05-19T15:53:36.434Z,3.10
2019-05-19T15:56:06.808Z,2.83
2019-05-19T15:58:36.691Z,1.98
2019-05-19T16:01:06.939Z,2.15
2019-05-19T16:03:37.153Z,2.70
2019-05-19T16:06:07.064Z,3.87
2019-05-19T16:08:36.951Z,1.80
2019-05-19T16:11:07.130Z,2.33
2019-05-19T16:13:37.317Z,2.52
2019-05-19T16:16:07.122Z,2.55
2019-05-19T16:18:37.352Z,2.52
2019-05-19T16:21:07.588Z,2.85
2019-05-19T16:23:37.703Z,3.02
2019-05-19T16:26:07.820Z,3.00
2019-05-19T16:28:37.954Z,3.05
2019-05-19T16:31:08.172Z,6.97
2019-05-19T16:33:38.315Z,2.80
2019-05-19T16:36:08.166Z,3.27
2019-05-19T16:38:38.099Z,3.25
2019-05-19T16:41:08.241Z,3.95
2019-05-19T16:43:38.184Z,3.42
2019-05-19T16:46:08.035Z,3.35
2019-05-19T16:48:38.207Z,3.50
2019-05-19T16:51:08.526Z,4.08
2019-05-19T16:53:38.936Z,4.92
2019-05-19T16:56:09.202Z,5.60
2019-05-19T16:58:45.386Z,5.15
2019-05-19T17:01:10.632Z,6.92
2019-05-19T17:03:40.933Z,7.12
2019-05-19T17:06:11.271Z,8.18
2019-05-19T17:08:41.522Z,11.97
2019-05-19T17:11:18.384Z,8.70
2019-05-19T17:13:43.129Z,7.87
2019-05-19T17:16:13.512Z,9.10
2019-05-19T17:18:43.621Z,9.78
2019-05-19T17:21:13.423Z,10.32
2019-05-19T17:23:43.557Z,12.18
2019-05-19T17:26:13.369Z,9.75
2019-05-19T17:28:43.178Z,9.68
2019-05-19T17:31:12.991Z,10.78
2019-05-19T17:33:42.807Z,11.45
2019-05-19T17:36:12.628Z,12.03
2019-05-19T17:38:42.489Z,12.80
2019-05-19T17:41:12.381Z,14.80
2019-05-19T17:43:42.464Z,14.07
2019-05-19T17:46:12.295Z,13.18
2019-05-19T17:48:42.107Z,14.03
2019-05-19T17:51:11.934Z,14.03
2019-05-19T17:53:42.649Z,13.50
2019-05-19T17:56:13.773Z,12.18
2019-05-19T17:58:44.066Z,12.25
2019-05-19T18:01:14.230Z,12.37
2019-05-19T18:03:45.068Z,12.53
2019-05-19T18:06:15.308Z,12.82
2019-05-19T18:08:45.625Z,12.03
2019-05-19T18:11:15.488Z,12.28
2019-05-19T18:13:45.425Z,12.60
2019-05-19T18:16:15.263Z,15.48
2019-05-19T18:18:45.643Z,14.40
2019-05-19T18:21:15.728Z,16.85
2019-05-19T18:23:46.038Z,17.15
2019-05-19T18:26:16.083Z,21.90
2019-05-19T18:28:46.440Z,20.90
2019-05-19T18:31:16.315Z,23.38
2019-05-19T18:33:50.064Z,23.45
2019-05-19T18:36:20.228Z,26.95
2019-05-19T18:38:50.538Z,23.87
2019-05-19T18:41:20.685Z,28.15
2019-05-19T18:43:50.807Z,25.97
2019-05-19T18:46:21.037Z,28.15
2019-05-19T18:48:50.883Z,28.92
2019-05-19T18:51:20.693Z,32.35
2019-05-19T18:53:50.801Z,28.52
2019-05-19T18:56:20.619Z,31.27
2019-05-19T18:58:50.461Z,29.82
2019-05-19T19:01:20.338Z,28.23
2019-05-19T19:03:52.277Z,31.07
2019-05-19T19:06:22.211Z,29.92
2019-05-19T19:08:52.047Z,29.82
2019-05-19T19:11:22.145Z,32.40
2019-05-19T19:13:52.385Z,33.55
2019-05-19T19:16:22.222Z,32.88
2019-05-19T19:18:52.074Z,36.75
2019-05-19T19:21:22.330Z,35.60
2019-05-19T19:23:52.239Z,41.23
2019-05-19T19:26:22.095Z,37.70
2019-05-19T19:28:52.054Z,35.90
2019-05-19T19:31:22.187Z,39.00
2019-05-19T19:33:52.045Z,41.77
2019-05-19T19:36:21.891Z,41.98
2019-05-19T19:38:51.712Z,42.30
2019-05-19T19:41:21.938Z,42.85
2019-05-19T19:43:52.097Z,44.88
2019-05-19T19:46:21.988Z,43.98
2019-05-19T19:48:52.596Z,47.10
2019-05-19T19:51:22.419Z,44.50
2019-05-19T19:53:52.629Z,47.58
2019-05-19T19:56:22.543Z,46.02
2019-05-19T19:58:52.354Z,51.08
2019-05-19T20:01:22.183Z,48.85
2019-05-19T20:03:52.017Z,45.73
2019-05-19T20:06:21.911Z,44.30
2019-05-19T20:08:51.753Z,46.18
2019-05-19T20:11:21.938Z,42.78
2019-05-19T20:13:51.769Z,42.48
2019-05-19T20:16:21.604Z,45.08
2019-05-19T20:18:51.783Z,43.23
2019-05-19T20:21:21.908Z,40.08
2019-05-19T20:23:51.799Z,40.85
2019-05-19T20:26:21.730Z,41.70
2019-05-19T20:28:51.956Z,42.90
2019-05-19T20:31:22.074Z,40.65
2019-05-19T20:33:52.209Z,41.58
2019-05-19T20:36:22.064Z,44.25
2019-05-19T20:38:51.928Z,43.90
2019-05-19T20:41:23.181Z,43.90
2019-05-19T20:43:53.019Z,45.12
2019-05-19T20:46:22.837Z,41.13
2019-05-19T20:48:52.926Z,43.17
2019-05-19T20:51:23.165Z,38.13
2019-05-19T20:53:53.472Z,42.33
2019-05-19T20:56:23.320Z,41.98
2019-05-19T20:58:53.407Z,42.58
2019-05-19T21:01:23.511Z,42.98
2019-05-19T21:03:54.662Z,45.67
2019-05-19T21:06:24.487Z,43.80
2019-05-19T21:08:54.302Z,44.20
2019-05-19T21:11:24.142Z,42.98
2019-05-19T21:13:54.225Z,41.53
2019-05-19T21:16:24.287Z,40.60
2019-05-19T21:19:11.362Z,41.25
2019-05-19T21:21:41.189Z,45.88
2019-05-19T21:24:11.076Z,38.85
2019-05-19T21:26:41.206Z,41.13
2019-05-19T21:29:11.020Z,44.18
2019-05-19T21:31:41.142Z,43.17
2019-05-19T21:34:11.018Z,46.45
2019-05-19T21:36:40.891Z,46.80
2019-05-19T21:39:10.999Z,46.90
2019-05-19T21:41:41.306Z,49.30
2019-05-19T21:44:11.435Z,46.05
2019-05-19T21:46:41.267Z,45.58
2019-05-19T21:49:11.364Z,49.85
2019-05-19T21:51:41.583Z,47.90
2019-05-19T21:54:11.407Z,48.80
2019-05-19T21:56:41.235Z,47.05
2019-05-19T21:59:11.537Z,44.50
2019-05-19T22:01:41.351Z,47.27
2019-05-19T22:04:11.173Z,45.88
2019-05-19T22:06:42.903Z,53.23
2019-05-19T22:09:12.731Z,49.30
2019-05-19T22:11:42.559Z,52.67
2019-05-19T22:14:12.687Z,59.35
2019-05-19T22:16:42.618Z,56.80
2019-05-19T22:19:15.780Z,55.35
2019-05-19T22:21:44.340Z,59.30
2019-05-19T22:24:14.480Z,58.58
2019-05-19T22:26:44.757Z,59.88
2019-05-19T22:29:15.019Z,63.38
2019-05-19T22:31:45.157Z,62.50
2019-05-19T22:34:15.283Z,59.23
2019-05-19T22:36:45.109Z,65.75
2019-05-19T22:39:14.938Z,67.60
2019-05-19T22:41:44.744Z,64.82
2019-05-19T22:44:14.825Z,71.82
2019-05-19T22:46:44.638Z,68.30
2019-05-19T22:49:14.855Z,65.75
2019-05-19T22:51:44.700Z,66.97
2019-05-19T22:54:14.902Z,70.97
2019-05-19T22:56:44.730Z,77.80
2019-05-19T22:59:19.809Z,83.30
2019-05-19T23:01:51.678Z,78.52
2019-05-19T23:04:17.580Z,78.15
2019-05-19T23:06:47.407Z,82.37
2019-05-19T23:09:17.303Z,78.17
2019-05-19T23:11:47.133Z,77.70
2019-05-19T23:14:17.022Z,78.40
2019-05-19T23:16:46.917Z,75.95
2019-05-19T23:19:16.730Z,75.35
2019-05-19T23:21:46.563Z,71.97
2019-05-19T23:24:16.649Z,73.55
2019-05-19T23:26:46.461Z,72.92
2019-05-19T23:29:16.577Z,72.25
2019-05-19T23:31:46.461Z,66.95
2019-05-19T23:34:16.608Z,77.53
2019-05-19T23:36:47.855Z,83.65
2019-05-19T23:39:18.096Z,85.50
2019-05-19T23:41:48.177Z,91.45
2019-05-19T23:44:18.318Z,91.25
2019-05-19T23:46:48.143Z,106.67
2019-05-19T23:49:18.256Z,114.70
2019-05-19T23:51:48.369Z,122.80
2019-05-19T23:54:18.613Z,110.85
2019-05-19T23:56:48.712Z,120.53
2019-05-19T23:59:18.832Z,137.82
